Time;durP1;ratioP1;P1;durP2;ratioP2;P2;SDS_P1;SDS_P2;PMS_P1;PMS_P2;Temp;Humidity;BMP_temperature;BMP_pressure;BME280_temperature;BME280_humidity;BME280_pressure;Samples;Min_cycle;Max_cycle;Signal;HPM_P1;HPM_P2
2023/10/15 00:00:12;;;;;;;4.78;1.67;;;7.20;99.90;;;;;;5090664;28;20095;-74
2023/10/15 00:02:41;;;;;;;9.80;1.65;;;7.20;99.90;;;;;;5091180;28;20143;-74
2023/10/15 00:05:09;;;;;;;3.95;1.40;;;7.20;99.90;;;;;;5087294;28;20419;-75
2023/10/15 00:07:36;;;;;;;4.03;1.33;;;7.10;99.90;;;;;;5091139;28;20048;-75
2023/10/15 00:10:08;;;;;;;6.78;1.60;;;7.10;99.90;;;;;;5091045;28;20044;-76
2023/10/15 00:12:36;;;;;;;6.60;1.45;;;7.00;99.90;;;;;;5088271;28;20047;-78
2023/10/15 00:15:08;;;;;;;5.88;1.38;;;7.00;99.90;;;;;;5091030;28;20085;-77
2023/10/15 00:17:35;;;;;;;11.13;1.60;;;6.90;99.90;;;;;;5091156;28;20097;-77
2023/10/15 00:20:09;;;;;;;5.45;1.45;;;7.00;99.90;;;;;;5088134;28;20048;-78
2023/10/15 00:22:37;;;;;;;4.25;1.60;;;7.00;99.90;;;;;;5089879;28;20386;-77
2023/10/15 00:25:08;;;;;;;7.82;1.88;;;7.00;99.90;;;;;;5090598;28;20048;-77
2023/10/15 00:27:36;;;;;;;;;;;7.00;99.90;;;;;;5091481;28;20048;-75
2023/10/15 00:30:06;;;;;;;4.57;1.30;;;7.10;99.90;;;;;;5090516;28;19920;-76
2023/10/15 00:32:33;;;;;;;6.85;1.40;;;7.10;99.90;;;;;;5090446;28;20056;-75
2023/10/15 00:35:00;;;;;;;5.53;1.52;;;7.10;99.90;;;;;;5090564;28;20044;-75
2023/10/15 00:37:27;;;;;;;8.43;2.22;;;7.10;99.90;;;;;;5090903;28;20491;-75
2023/10/15 00:39:56;;;;;;;6.30;1.50;;;7.10;99.90;;;;;;5090376;28;20056;-75
2023/10/15 00:42:25;;;;;;;4.72;1.40;;;7.10;99.90;;;;;;5089103;28;20094;-75
2023/10/15 00:44:52;;;;;;;5.50;1.80;;;7.00;99.90;;;;;;5090308;28;20052;-76
2023/10/15 00:47:21;;;;;;;6.00;1.60;;;7.00;99.90;;;;;;5090317;28;20058;-76
2023/10/15 00:49:49;;;;;;;5.43;1.33;;;7.00;99.90;;;;;;5091758;28;20051;-77
2023/10/15 00:52:16;;;;;;;5.97;1.40;;;7.00;99.90;;;;;;5090676;28;20518;-76
2023/10/15 00:54:43;;;;;;;7.88;1.67;;;7.10;99.90;;;;;;5089845;28;20514;-76
2023/10/15 00:59:54;;;;;;;6.03;1.50;;;7.10;99.90;;;;;;5090052;28;20188;-76
2023/10/15 01:02:28;;;;;;;7.85;1.85;;;7.10;99.90;;;;;;5091265;28;20052;-77
2023/10/15 01:05:00;;;;;;;9.65;1.50;;;7.10;99.90;;;;;;5090172;28;20044;-76
2023/10/15 01:07:33;;;;;;;4.70;1.38;;;7.00;99.90;;;;;;5090805;28;20590;-76
2023/10/15 01:10:00;;;;;;;5.07;2.00;;;7.00;99.90;;;;;;5094380;28;20063;-77
2023/10/15 01:12:32;;;;;;;7.35;2.15;;;7.00;99.90;;;;;;5091964;28;20085;-76
2023/10/15 01:14:59;;;;;;;5.70;1.40;;;6.90;99.90;;;;;;5093597;28;20040;-75
2023/10/15 01:17:36;;;;;;;5.47;1.85;;;6.90;99.90;;;;;;5094065;28;20120;-76
2023/10/15 01:20:06;;;;;;;6.97;1.60;;;6.80;99.90;;;;;;5092672;28;20130;-76
2023/10/15 01:22:33;;;;;;;4.82;1.80;;;6.80;99.90;;;;;;5091660;28;20600;-76
2023/10/15 01:25:17;;;;;;;9.43;2.20;;;6.90;99.90;;;;;;5093575;28;20127;-76
2023/10/15 01:27:45;;;;;;;6.85;1.45;;;6.90;99.90;;;;;;5092038;28;20494;-76
2023/10/15 01:30:17;;;;;;;5.53;1.67;;;7.00;99.90;;;;;;5094161;28;20068;-76
2023/10/15 01:32:45;;;;;;;8.48;1.90;;;7.00;99.90;;;;;;5093805;28;20055;-76
2023/10/15 01:35:14;;;;;;;8.95;1.83;;;7.10;99.90;;;;;;5093571;28;20076;-75
2023/10/15 01:37:56;;;;;;;4.68;1.80;;;7.10;99.90;;;;;;5091308;28;20474;-75
2023/10/15 01:40:36;;;;;;;7.80;1.98;;;7.10;99.90;;;;;;5092904;28;20060;-76
2023/10/15 01:43:06;;;;;;;9.23;3.72;;;7.60;99.90;;;;;;5092809;28;20044;-76
2023/10/15 01:45:38;;;;;;;9.07;2.95;;;7.20;99.90;;;;;;5093093;28;20063;-76
2023/10/15 01:48:13;;;;;;;7.60;2.28;;;7.20;99.90;;;;;;5093641;28;20075;-77
2023/10/15 01:50:46;;;;;;;6.68;1.83;;;7.30;99.90;;;;;;5091849;28;20567;-75
2023/10/15 01:53:13;;;;;;;4.72;2.15;;;7.30;99.90;;;;;;5091845;28;20048;-76
2023/10/15 01:55:53;;;;;;;4.60;1.88;;;7.20;99.90;;;;;;5093109;28;20052;-76
2023/10/15 01:58:24;;;;;;;9.60;2.00;;;7.20;99.90;;;;;;5093916;28;20462;-77
2023/10/15 02:00:52;;;;;;;5.68;1.60;;;7.10;99.90;;;;;;5092737;28;20056;-76
2023/10/15 02:03:19;;;;;;;9.25;1.55;;;7.00;99.90;;;;;;5093028;28;20090;-75
2023/10/15 02:05:46;;;;;;;6.97;1.98;;;6.90;99.90;;;;;;5092227;28;20036;-76
2023/10/15 02:08:16;;;;;;;7.50;1.85;;;6.80;99.90;;;;;;5093957;28;20467;-76
2023/10/15 02:10:47;;;;;;;8.33;1.63;;;6.70;99.90;;;;;;5092571;28;20044;-75
2023/10/15 02:13:16;;;;;;;7.05;1.77;;;6.50;99.90;;;;;;5093206;28;20450;-76
2023/10/15 02:15:43;;;;;;;3.97;1.70;;;6.40;99.90;;;;;;5093812;28;20051;-76
2023/10/15 02:18:14;;;;;;;10.70;3.30;;;6.40;99.90;;;;;;5092422;28;20385;-77
2023/10/15 02:20:47;;;;;;;5.72;1.58;;;6.30;99.90;;;;;;5092509;28;20048;-78
2023/10/15 02:23:19;;;;;;;5.28;1.63;;;6.30;99.90;;;;;;5092978;28;20051;-78
2023/10/15 02:25:48;;;;;;;8.30;1.88;;;6.30;99.90;;;;;;5091768;28;20044;-77
2023/10/15 02:28:20;;;;;;;4.38;1.20;;;6.30;99.90;;;;;;5093685;28;20048;-76
2023/10/15 02:30:47;;;;;;;5.55;1.58;;;6.30;99.90;;;;;;5092486;28;20052;-76
2023/10/15 02:33:18;;;;;;;5.88;1.27;;;6.30;99.90;;;;;;5092112;28;20048;-77
2023/10/15 02:35:47;;;;;;;6.50;1.52;;;6.30;99.90;;;;;;5092408;28;20056;-77
2023/10/15 02:38:15;;;;;;;7.43;1.65;;;6.50;99.90;;;;;;5093987;28;20094;-76
2023/10/15 02:40:58;;;;;;;5.38;1.73;;;6.40;99.90;;;;;;5091773;28;20054;-76
2023/10/15 02:43:27;;;;;;;5.50;1.38;;;6.40;99.90;;;;;;5092313;28;20052;-76
2023/10/15 02:45:55;;;;;;;4.45;1.50;;;6.50;99.90;;;;;;5091476;28;20097;-76
2023/10/15 02:48:25;;;;;;;7.70;2.13;;;6.50;99.90;;;;;;5092285;28;20086;-76
2023/10/15 02:51:00;;;;;;;10.00;2.63;;;6.60;99.90;;;;;;5092252;28;20492;-76
2023/10/15 02:53:33;;;;;;;10.15;2.00;;;6.60;99.90;;;;;;5092005;28;20047;-77
2023/10/15 02:56:00;;;;;;;6.90;1.75;;;6.60;99.90;;;;;;5091938;28;20048;-76
2023/10/15 02:58:29;;;;;;;5.07;1.23;;;6.70;99.90;;;;;;5092291;28;20104;-76
2023/10/15 03:01:00;;;;;;;6.72;1.30;;;6.70;99.90;;;;;;5091188;28;20048;-76
2023/10/15 03:03:34;;;;;;;4.50;1.30;;;6.70;99.90;;;;;;5090768;28;20056;-74
2023/10/15 03:06:01;;;;;;;5.70;1.00;;;6.70;99.90;;;;;;5091536;28;20044;-75
2023/10/15 03:08:33;;;;;;;13.52;1.80;;;6.70;99.90;;;;;;5091352;28;20048;-76
2023/10/15 03:11:12;;;;;;;5.43;1.73;;;6.70;99.90;;;;;;5091514;28;20052;-75
2023/10/15 03:13:52;;;;;;;4.80;1.20;;;6.70;99.90;;;;;;5091861;28;20052;-76
2023/10/15 03:16:19;;;;;;;5.97;1.35;;;6.80;99.90;;;;;;5090013;28;20561;-76
2023/10/15 03:18:50;;;;;;;6.75;1.20;;;6.80;99.90;;;;;;5091289;28;20054;-76
2023/10/15 03:21:25;;;;;;;4.57;1.38;;;6.80;99.90;;;;;;5093211;28;20397;-76
2023/10/15 03:23:55;;;;;;;3.10;1.00;;;6.90;99.90;;;;;;5092620;28;20130;-77
2023/10/15 03:26:22;;;;;;;5.80;1.20;;;6.90;99.90;;;;;;5092275;28;20105;-76
2023/10/15 03:28:58;;;;;;;3.30;1.10;;;7.00;99.90;;;;;;5091943;28;20135;-77
2023/10/15 03:31:27;;;;;;;5.95;2.95;;;7.70;99.90;;;;;;5092886;28;20083;-77
2023/10/15 03:34:14;;;;;;;7.03;2.33;;;7.20;99.90;;;;;;5092327;28;20069;-76
2023/10/15 03:36:47;;;;;;;5.65;1.25;;;7.00;99.90;;;;;;5089109;28;20048;-77
2023/10/15 03:39:24;;;;;;;3.67;1.13;;;7.00;99.90;;;;;;5089543;28;20059;-76
2023/10/15 03:42:09;;;;;;;7.65;1.45;;;7.00;99.90;;;;;;5089755;28;20476;-76
2023/10/15 03:44:37;;;;;;;4.00;1.10;;;7.00;99.90;;;;;;5091438;28;20044;-77
2023/10/15 03:47:05;;;;;;;2.85;1.05;;;7.00;99.90;;;;;;5091097;28;20047;-77
2023/10/15 03:49:33;;;;;;;5.03;0.88;;;6.90;99.90;;;;;;5088824;28;20056;-76
2023/10/15 03:52:07;;;;;;;5.47;0.98;;;6.90;99.90;;;;;;5091224;28;20454;-76
2023/10/15 03:54:33;;;;;;;2.85;1.00;;;6.90;99.90;;;;;;5091042;28;20132;-76
2023/10/15 03:57:01;;;;;;;1.75;0.75;;;6.90;99.90;;;;;;5090685;28;20050;-76
2023/10/15 03:59:28;;;;;;;3.88;0.98;;;6.90;99.90;;;;;;5091087;28;20192;-76
2023/10/15 04:01:56;;;;;;;6.13;1.33;;;6.80;99.90;;;;;;5091208;28;20411;-76
2023/10/15 04:04:24;;;;;;;9.10;1.20;;;6.80;99.90;;;;;;5089023;28;20040;-75
2023/10/15 04:06:53;;;;;;;4.47;1.25;;;6.80;99.90;;;;;;5090787;28;20043;-75
2023/10/15 04:09:27;;;;;;;6.97;2.05;;;6.80;99.90;;;;;;5089394;28;20056;-77
2023/10/15 04:11:55;;;;;;;3.85;1.10;;;6.70;99.90;;;;;;5088452;28;20055;-77
2023/10/15 04:14:28;;;;;;;1.45;0.63;;;6.80;99.90;;;;;;5090685;28;20561;-76
2023/10/15 04:16:58;;;;;;;17.10;0.90;;;6.80;99.90;;;;;;5090896;28;20084;-77
2023/10/15 04:19:27;;;;;;;4.60;0.90;;;6.80;99.90;;;;;;5090329;28;20108;-77
2023/10/15 04:21:59;;;;;;;4.57;1.00;;;6.70;99.90;;;;;;5090867;28;20040;-77
2023/10/15 04:24:36;;;;;;;2.05;0.80;;;6.70;99.90;;;;;;5090009;28;20483;-76
2023/10/15 04:27:06;;;;;;;3.45;0.90;;;6.70;99.90;;;;;;5090783;28;20137;-76
2023/10/15 04:29:35;;;;;;;3.00;0.95;;;6.70;99.90;;;;;;5090583;28;20055;-74
2023/10/15 04:32:04;;;;;;;3.05;0.75;;;6.70;99.90;;;;;;5090341;28;20120;-76
2023/10/15 04:34:32;;;;;;;2.85;0.82;;;6.70;99.90;;;;;;5088679;28;20059;-76
2023/10/15 04:37:01;;;;;;;3.95;0.95;;;6.70;99.90;;;;;;5090735;28;20058;-75
2023/10/15 04:39:28;;;;;;;4.07;0.93;;;6.70;99.90;;;;;;5090426;28;20048;-76
2023/10/15 04:41:55;;;;;;;4.55;1.33;;;6.70;99.90;;;;;;5090824;28;20101;-77
2023/10/15 04:44:28;;;;;;;5.72;0.93;;;6.70;99.90;;;;;;5094561;28;20052;-75
2023/10/15 04:47:05;;;;;;;3.85;0.88;;;6.70;99.90;;;;;;5094012;28;20056;-77
2023/10/15 04:49:33;;;;;;;5.78;1.15;;;6.70;99.90;;;;;;5092997;28;20058;-78
2023/10/15 04:52:00;;;;;;;4.03;0.80;;;6.70;99.90;;;;;;5094428;28;20097;-76
2023/10/15 04:54:27;;;;;;;3.47;1.10;;;6.70;99.90;;;;;;5094069;28;20056;-78
2023/10/15 04:56:55;;;;;;;3.28;0.80;;;6.70;99.90;;;;;;5094070;28;20097;-77
2023/10/15 04:59:22;;;;;;;3.63;0.80;;;6.70;99.90;;;;;;5096447;28;20079;-77
2023/10/15 05:01:49;;;;;;;4.35;0.88;;;6.60;99.90;;;;;;5095326;28;20043;-76
2023/10/15 05:04:16;;;;;;;2.78;0.95;;;6.50;99.90;;;;;;5097590;28;20043;-76
2023/10/15 05:06:44;;;;;;;6.57;0.90;;;6.50;99.90;;;;;;5096783;28;20479;-76
2023/10/15 05:09:21;;;;;;;5.32;1.35;;;6.40;99.90;;;;;;5097403;28;20043;-75
2023/10/15 05:11:50;;;;;;;6.72;0.85;;;6.40;99.90;;;;;;5097496;28;20096;-76
2023/10/15 05:14:18;;;;;;;2.63;0.80;;;6.30;99.90;;;;;;5108154;28;20043;-79
2023/10/15 05:16:47;;;;;;;2.97;1.13;;;6.30;99.90;;;;;;5096066;28;20051;-80
2023/10/15 05:19:17;;;;;;;3.22;1.15;;;6.30;99.90;;;;;;5094868;28;20126;-80
2023/10/15 05:21:47;;;;;;;3.00;1.00;;;6.30;99.90;;;;;;5092953;28;20063;-79
2023/10/15 05:24:18;;;;;;;6.82;1.40;;;6.30;99.90;;;;;;5111654;28;20134;-80
2023/10/15 05:26:46;;;;;;;4.90;1.08;;;6.20;99.90;;;;;;5095050;28;20043;-80
2023/10/15 05:29:13;;;;;;;3.70;0.93;;;6.30;99.90;;;;;;5096095;28;20529;-79
2023/10/15 05:31:40;;;;;;;6.72;1.50;;;7.10;99.90;;;;;;5096123;28;20487;-79
2023/10/15 05:34:08;;;;;;;6.35;1.13;;;6.10;99.90;;;;;;5095526;28;20077;-80
2023/10/15 05:36:35;;;;;;;5.00;1.20;;;6.10;99.90;;;;;;5094106;28;20044;-79
2023/10/15 05:39:04;;;;;;;4.97;1.10;;;6.00;99.90;;;;;;5095008;28;20056;-79
2023/10/15 05:41:32;;;;;;;5.95;1.55;;;6.00;99.90;;;;;;5094147;28;20055;-80
2023/10/15 05:43:59;;;;;;;4.30;1.10;;;6.00;99.90;;;;;;5094139;28;20044;-79
2023/10/15 05:46:25;;;;;;;9.30;1.73;;;6.00;99.90;;;;;;5095039;28;20048;-79
2023/10/15 05:48:52;;;;;;;7.82;1.92;;;6.00;99.90;;;;;;5111107;28;20093;-79
2023/10/15 05:51:20;;;;;;;6.93;2.90;;;6.10;99.90;;;;;;5096181;28;20047;-79
2023/10/15 05:53:47;;;;;;;8.48;3.17;;;6.10;99.90;;;;;;5093282;28;20047;-77
2023/10/15 05:56:16;;;;;;;6.65;3.70;;;6.20;99.90;;;;;;5095300;28;20085;-79
2023/10/15 05:58:43;;;;;;;5.78;1.10;;;6.30;99.90;;;;;;5111955;28;20530;-79
2023/10/15 06:01:09;;;;;;;3.45;1.13;;;6.30;99.90;;;;;;5095095;28;20066;-79
2023/10/15 06:03:37;;;;;;;2.42;1.00;;;6.40;99.90;;;;;;5094453;28;20055;-79
2023/10/15 06:06:05;;;;;;;4.00;1.10;;;6.40;99.90;;;;;;5095911;28;20732;-79
2023/10/15 06:08:32;;;;;;;5.30;1.00;;;6.40;99.90;;;;;;5093137;28;20054;-79
2023/10/15 06:10:59;;;;;;;4.95;1.20;;;6.40;99.90;;;;;;5093379;28;20126;-80
2023/10/15 06:13:27;;;;;;;5.43;1.10;;;6.40;99.90;;;;;;5093608;28;20047;-79
2023/10/15 06:15:54;;;;;;;2.67;1.00;;;6.40;99.90;;;;;;5095820;28;20643;-79
2023/10/15 06:18:21;;;;;;;6.57;1.20;;;6.40;99.90;;;;;;5093778;28;20459;-80
2023/10/15 06:20:50;;;;;;;5.80;2.17;;;6.50;99.90;;;;;;5095593;28;20047;-80
2023/10/15 06:23:18;;;;;;;7.13;1.97;;;6.40;99.90;;;;;;5093393;28;20048;-80
2023/10/15 06:25:44;;;;;;;5.53;1.38;;;6.30;99.90;;;;;;5094708;28;20293;-78
2023/10/15 06:28:14;;;;;;;5.15;0.82;;;6.30;99.90;;;;;;5095254;28;20052;-77
2023/10/15 06:30:43;;;;;;;3.75;1.25;;;6.30;99.90;;;;;;5094078;28;20493;-78
2023/10/15 06:33:11;;;;;;;3.80;1.13;;;6.30;99.90;;;;;;5092273;28;20090;-79
2023/10/15 06:35:40;;;;;;;4.45;1.08;;;6.10;99.90;;;;;;5093330;28;20039;-78
2023/10/15 06:38:07;;;;;;;6.35;1.00;;;6.20;99.90;;;;;;5111736;28;21325;-78
2023/10/15 06:40:37;;;;;;;5.65;1.35;;;6.20;99.90;;;;;;5094870;28;20101;-77
2023/10/15 06:43:04;;;;;;;2.25;1.13;;;6.20;99.90;;;;;;5095198;28;20526;-79
2023/10/15 06:45:32;;;;;;;4.18;1.30;;;6.20;99.90;;;;;;5093748;28;20096;-78
2023/10/15 06:48:02;;;;;;;5.47;1.15;;;6.30;99.90;;;;;;5091303;28;20051;-78
2023/10/15 06:50:30;;;;;;;3.08;1.05;;;6.30;99.90;;;;;;5091547;28;20051;-78
2023/10/15 06:53:01;;;;;;;3.67;0.90;;;6.30;99.90;;;;;;5092844;28;20510;-79
2023/10/15 06:55:31;;;;;;;3.70;0.90;;;6.30;99.90;;;;;;5093230;28;20051;-79
2023/10/15 06:57:58;;;;;;;5.15;1.10;;;6.30;99.90;;;;;;5094643;28;20044;-79
2023/10/15 07:00:25;;;;;;;4.63;1.55;;;6.40;99.90;;;;;;5090218;28;20074;-80
2023/10/15 07:02:53;;;;;;;8.73;1.80;;;6.50;99.90;;;;;;5091998;28;20039;-79
2023/10/15 07:05:25;;;;;;;12.90;1.60;;;6.50;99.90;;;;;;5107915;28;20590;-80
2023/10/15 07:07:52;;;;;;;5.22;1.42;;;6.50;99.90;;;;;;5091914;28;20290;-79
2023/10/15 07:10:21;;;;;;;7.30;3.00;;;6.50;99.90;;;;;;5092265;28;20067;-80
2023/10/15 07:12:51;;;;;;;8.75;3.53;;;6.50;99.90;;;;;;5093919;28;20058;-79
2023/10/15 07:15:21;;;;;;;6.50;2.92;;;6.40;99.90;;;;;;5095507;28;20472;-79
2023/10/15 07:17:50;;;;;;;8.47;3.60;;;6.60;99.90;;;;;;5095100;28;20051;-78
2023/10/15 07:20:18;;;;;;;3.90;1.00;;;6.50;99.90;;;;;;5092710;28;20281;-80
2023/10/15 07:22:48;;;;;;;3.78;1.10;;;6.50;99.90;;;;;;5093248;28;20130;-78
2023/10/15 07:25:16;;;;;;;2.35;0.93;;;6.40;99.90;;;;;;5096007;28;20081;-78
2023/10/15 07:27:45;;;;;;;2.60;0.88;;;6.40;99.90;;;;;;5094767;28;20062;-77
2023/10/15 07:30:13;;;;;;;4.20;0.88;;;6.40;99.90;;;;;;5093763;28;20071;-78
2023/10/15 07:32:41;;;;;;;2.63;1.00;;;6.40;99.90;;;;;;5094416;28;20059;-79
2023/10/15 07:35:11;;;;;;;3.17;0.90;;;6.40;99.90;;;;;;5093747;28;20079;-78
2023/10/15 07:37:40;;;;;;;6.88;1.30;;;6.40;99.90;;;;;;5092047;28;20105;-78
2023/10/15 07:40:16;;;;;;;3.10;1.00;;;6.40;99.90;;;;;;5092378;28;20104;-79
2023/10/15 07:42:44;;;;;;;4.07;1.05;;;6.50;99.90;;;;;;5090389;28;20154;-78
2023/10/15 07:45:11;;;;;;;6.55;1.10;;;6.50;99.90;;;;;;5093910;28;20043;-79
2023/10/15 07:47:38;;;;;;;2.30;0.90;;;6.50;99.90;;;;;;5092564;28;20051;-79
2023/10/15 07:50:07;;;;;;;4.25;0.98;;;6.60;99.90;;;;;;5094026;28;20586;-78
2023/10/15 07:52:34;;;;;;;2.38;1.00;;;6.60;99.90;;;;;;5093401;28;20043;-78
2023/10/15 07:55:01;;;;;;;3.33;0.95;;;6.70;99.90;;;;;;5093310;28;20035;-78
2023/10/15 07:57:29;;;;;;;3.22;0.80;;;6.70;99.90;;;;;;5091676;28;20047;-77
2023/10/15 07:59:58;;;;;;;5.57;1.02;;;6.90;99.90;;;;;;5090650;28;20058;-75
2023/10/15 08:02:26;;;;;;;3.22;0.80;;;7.10;99.90;;;;;;5091979;28;20951;-77
2023/10/15 08:04:54;;;;;;;4.30;1.20;;;7.20;99.90;;;;;;5090426;28;20055;-78
2023/10/15 08:07:22;;;;;;;5.60;1.25;;;7.20;99.90;;;;;;5092227;28;20067;-77
2023/10/15 08:09:49;;;;;;;6.25;1.63;;;7.20;99.90;;;;;;5091393;28;20055;-76
2023/10/15 08:12:17;;;;;;;3.10;1.15;;;7.20;99.90;;;;;;5093718;28;20050;-77
2023/10/15 08:14:46;;;;;;;4.53;1.52;;;7.40;99.90;;;;;;5090647;28;20043;-77
2023/10/15 08:17:13;;;;;;;4.55;1.50;;;7.50;99.90;;;;;;5091953;28;20117;-77
2023/10/15 08:19:40;;;;;;;2.00;1.08;;;8.30;99.90;;;;;;5096863;28;20043;-76
2023/10/15 08:22:07;;;;;;;3.10;0.95;;;9.90;99.90;;;;;;5097031;28;20048;-77
2023/10/15 08:24:36;;;;;;;4.82;1.10;;;11.60;99.90;;;;;;5095871;28;20122;-76
2023/10/15 08:27:04;;;;;;;3.67;1.10;;;12.70;99.90;;;;;;5095333;28;20114;-76
2023/10/15 08:29:31;;;;;;;5.10;0.90;;;12.80;99.90;;;;;;5114100;28;20044;-77
2023/10/15 08:32:01;;;;;;;5.07;1.17;;;12.30;99.90;;;;;;5114654;28;20043;-76
2023/10/15 08:34:29;;;;;;;4.88;1.20;;;11.80;99.90;;;;;;5093327;28;20052;-77
2023/10/15 08:36:56;;;;;;;2.63;0.95;;;11.40;99.90;;;;;;5095137;28;20055;-76
2023/10/15 08:39:23;;;;;;;6.13;1.40;;;10.80;99.90;;;;;;5096122;28;20058;-78
2023/10/15 08:41:54;;;;;;;4.18;1.02;;;10.80;99.90;;;;;;5093740;28;20116;-77
2023/10/15 08:44:21;;;;;;;;;;;11.50;99.90;;;;;;5096355;28;20094;-78
2023/10/15 08:46:48;;;;;;;7.03;1.10;;;12.20;99.90;;;;;;5094030;28;20417;-78
2023/10/15 08:49:17;;;;;;;6.22;2.10;;;12.30;99.90;;;;;;5095467;28;20100;-77
2023/10/15 08:51:45;;;;;;;6.50;1.90;;;11.80;99.90;;;;;;5094338;28;20063;-79
2023/10/15 08:54:14;;;;;;;8.77;2.08;;;11.40;99.90;;;;;;5095828;28;20052;-78
2023/10/15 08:56:43;;;;;;;8.57;1.70;;;11.20;99.90;;;;;;5113828;28;20071;-78
2023/10/15 08:59:10;;;;;;;6.38;1.90;;;10.80;99.90;;;;;;5094424;28;20054;-78
2023/10/15 09:01:42;;;;;;;4.30;1.20;;;10.60;99.90;;;;;;5096467;28;20039;-77
2023/10/15 09:04:10;;;;;;;5.50;1.35;;;10.60;99.90;;;;;;5096961;28;20055;-78
2023/10/15 09:06:39;;;;;;;6.03;1.40;;;10.80;99.90;;;;;;5093146;28;20445;-78
2023/10/15 09:09:06;;;;;;;8.82;1.50;;;11.10;99.90;;;;;;5114852;28;20074;-76
2023/10/15 09:11:33;;;;;;;4.85;1.38;;;11.30;99.90;;;;;;5112714;28;20047;-76
2023/10/15 09:14:02;;;;;;;5.72;1.65;;;12.40;99.90;;;;;;5095441;28;20059;-76
2023/10/15 09:16:30;;;;;;;5.68;1.30;;;14.00;99.90;;;;;;5093378;28;20568;-75
2023/10/15 09:19:03;;;;;;;6.25;1.45;;;15.90;99.90;;;;;;5092158;28;20495;-76
2023/10/15 09:21:31;;;;;;;5.97;1.45;;;16.60;99.90;;;;;;5094428;28;20438;-75
2023/10/15 09:24:01;;;;;;;5.68;1.15;;;15.70;99.90;;;;;;5095420;28;20055;-76
2023/10/15 09:26:31;;;;;;;6.82;1.23;;;14.50;99.90;;;;;;5089864;28;20075;-71
2023/10/15 09:28:57;;;;;;;4.82;1.35;;;13.90;99.90;;;;;;5093340;28;20052;-71
2023/10/15 09:31:25;;;;;;;4.55;1.15;;;13.40;99.90;;;;;;5091684;28;20503;-73
2023/10/15 09:33:52;;;;;;;3.78;1.02;;;13.70;99.90;;;;;;5090812;28;20039;-74
2023/10/15 09:36:24;;;;;;;3.13;0.90;;;14.70;99.90;;;;;;5095222;28;20051;-73
2023/10/15 09:38:54;;;;;;;2.58;0.77;;;15.50;99.90;;;;;;5094022;28;20128;-74
2023/10/15 09:41:26;;;;;;;3.92;0.80;;;16.70;99.90;;;;;;5094988;28;20047;-74
2023/10/15 09:43:53;;;;;;;6.50;1.50;;;17.50;99.90;;;;;;5093375;28;20050;-74
2023/10/15 09:46:20;;;;;;;2.20;0.90;;;18.60;99.90;;;;;;5094754;28;20411;-73
2023/10/15 09:48:48;;;;;;;1.77;0.70;;;19.20;99.90;;;;;;5091962;28;20078;-74
2023/10/15 09:51:15;;;;;;;3.97;0.82;;;19.70;98.70;;;;;;5112314;28;20100;-74
2023/10/15 09:53:45;;;;;;;2.78;1.30;;;20.10;97.70;;;;;;5089797;28;20398;-74
2023/10/15 09:56:15;;;;;;;2.38;0.80;;;20.70;96.60;;;;;;5094552;28;20048;-73
2023/10/15 09:58:44;;;;;;;3.35;0.90;;;20.10;94.30;;;;;;5091405;28;20052;-75
2023/10/15 10:01:25;;;;;;;2.65;0.80;;;20.20;94.20;;;;;;5109239;28;20083;-74
2023/10/15 10:04:42;;;;;;;3.30;0.80;;;20.50;93.60;;;;;;5092467;28;20043;-74
2023/10/15 10:07:50;;;;;;;7.47;1.58;;;21.10;92.60;;;;;;5095247;28;20523;-74
2023/10/15 10:10:54;;;;;;;3.20;1.23;;;21.60;92.30;;;;;;5085286;28;20446;-74
2023/10/15 10:14:03;;;;;;;3.33;0.98;;;22.70;92.10;;;;;;5093972;28;20465;-75
2023/10/15 10:16:30;;;;;;;3.85;1.25;;;21.50;93.30;;;;;;5012868;28;20045;-74
2023/10/15 10:18:57;;;;;;;3.95;1.00;;;19.80;94.90;;;;;;5012448;28;20045;-73
2023/10/15 10:21:29;;;;;;;2.80;1.20;;;18.60;95.70;;;;;;5052973;28;20052;-74
2023/10/15 10:23:59;;;;;;;2.20;0.75;;;17.60;96.20;;;;;;5095136;28;20402;-75
2023/10/15 10:26:28;;;;;;;3.60;0.63;;;16.70;97.30;;;;;;5092558;28;20380;-75
2023/10/15 10:28:56;;;;;;;2.38;0.80;;;16.30;98.70;;;;;;5090819;28;20062;-74
2023/10/15 10:31:25;;;;;;;1.30;0.57;;;16.80;98.80;;;;;;5093443;28;20051;-76
2023/10/15 10:33:54;;;;;;;2.47;0.55;;;17.80;97.00;;;;;;5094018;28;20040;-76
2023/10/15 10:36:22;;;;;;;2.57;0.70;;;18.70;95.80;;;;;;5093554;28;20092;-76
2023/10/15 10:39:07;;;;;;;3.42;0.73;;;19.80;93.80;;;;;;5088978;28;20135;-75
2023/10/15 10:41:39;;;;;;;2.08;0.63;;;20.40;91.40;;;;;;5093781;28;20063;-76
2023/10/15 10:44:07;;;;;;;3.58;0.70;;;20.30;92.90;;;;;;5089236;28;20048;-75
2023/10/15 10:46:43;;;;;;;4.07;0.88;;;21.10;92.30;;;;;;5089555;28;20062;-74
2023/10/15 10:49:14;;;;;;;3.47;0.80;;;21.60;90.70;;;;;;5094395;28;20047;-76
2023/10/15 10:51:42;;;;;;;4.85;1.20;;;20.50;92.60;;;;;;5093137;28;20075;-78
2023/10/15 10:54:27;;;;;;;4.13;0.80;;;18.30;93.50;;;;;;5095707;28;20399;-75
2023/10/15 10:57:08;;;;;;;6.55;1.13;;;16.30;97.00;;;;;;5095657;28;20040;-75
2023/10/15 10:59:35;;;;;;;;;;;14.60;98.20;;;;;;5095691;28;20055;-73
2023/10/15 11:02:11;;;;;;;4.25;0.82;;;13.80;99.90;;;;;;5095836;28;19919;-73
2023/10/15 11:04:39;;;;;;;3.53;0.90;;;12.90;99.90;;;;;;5095543;28;20727;-73
2023/10/15 11:07:07;;;;;;;4.65;1.10;;;12.80;99.90;;;;;;5094491;28;20467;-73
2023/10/15 11:09:37;;;;;;;4.40;1.10;;;12.40;99.90;;;;;;5094652;28;20427;-74
2023/10/15 11:12:06;;;;;;;3.15;1.05;;;12.60;99.90;;;;;;5094998;28;20138;-75
2023/10/15 11:14:34;;;;;;;5.20;1.15;;;14.00;99.90;;;;;;5092252;28;20503;-75
2023/10/15 11:17:01;;;;;;;2.30;0.80;;;15.70;99.90;;;;;;5094652;28;20048;-74
2023/10/15 11:19:30;;;;;;;4.22;1.38;;;17.20;99.90;;;;;;5094607;28;20047;-74
2023/10/15 11:21:58;;;;;;;2.87;0.90;;;18.40;98.90;;;;;;5094806;28;20503;-74
2023/10/15 11:24:26;;;;;;;2.75;1.00;;;19.70;98.00;;;;;;5094751;28;20074;-74
2023/10/15 11:26:54;;;;;;;5.80;1.33;;;20.10;96.10;;;;;;5093704;28;20048;-75
2023/10/15 11:29:23;;;;;;;4.90;1.25;;;20.90;94.20;;;;;;5092468;28;20093;-74
2023/10/15 11:31:53;;;;;;;5.72;1.20;;;21.40;93.70;;;;;;5093762;28;20108;-74
2023/10/15 11:34:22;;;;;;;4.90;1.20;;;22.10;92.60;;;;;;5092308;28;20514;-74
2023/10/15 11:36:55;;;;;;;4.20;1.00;;;21.50;92.40;;;;;;5093768;28;20043;-75
2023/10/15 11:39:25;;;;;;;5.82;1.40;;;20.30;91.90;;;;;;5094096;28;20061;-74
2023/10/15 11:41:52;;;;;;;3.38;1.33;;;19.00;94.40;;;;;;5093361;28;20047;-73
2023/10/15 11:44:25;;;;;;;3.95;1.33;;;17.50;94.90;;;;;;5094344;28;20043;-75
2023/10/15 11:46:53;;;;;;;4.05;0.82;;;16.40;95.60;;;;;;5092509;28;20051;-74
2023/10/15 11:49:22;;;;;;;4.15;1.05;;;15.60;97.00;;;;;;5093729;28;20074;-73
2023/10/15 11:51:55;;;;;;;3.30;1.05;;;14.80;97.60;;;;;;5094061;28;20413;-73
2023/10/15 11:54:25;;;;;;;2.92;0.90;;;14.50;97.50;;;;;;5092461;28;20062;-73
2023/10/15 11:56:54;;;;;;;4.18;0.93;;;14.30;97.70;;;;;;5093367;28;20039;-73
2023/10/15 11:59:22;;;;;;;4.22;1.38;;;14.00;97.40;;;;;;5093995;28;20486;-75
2023/10/15 12:01:52;;;;;;;3.42;0.90;;;14.20;98.80;;;;;;5092936;28;21282;-73
2023/10/15 12:04:20;;;;;;;4.78;1.35;;;15.50;98.50;;;;;;5093150;28;20575;-72
2023/10/15 12:06:47;;;;;;;4.80;1.33;;;16.70;95.90;;;;;;5094137;28;20090;-73
2023/10/15 12:09:16;;;;;;;7.22;1.52;;;16.90;95.70;;;;;;5093426;28;20047;-74
2023/10/15 12:11:46;;;;;;;4.57;1.40;;;16.30;96.30;;;;;;5094376;28;20043;-73
2023/10/15 12:14:13;;;;;;;4.10;1.15;;;15.80;97.20;;;;;;5093702;28;20399;-73
2023/10/15 12:16:40;;;;;;;4.45;1.55;;;16.20;97.70;;;;;;5093066;28;20050;-73
2023/10/15 12:19:09;;;;;;;3.45;1.02;;;17.10;96.80;;;;;;5093709;28;20093;-83
2023/10/15 12:21:37;;;;;;;5.85;1.52;;;18.20;95.60;;;;;;5093312;28;20502;-70
2023/10/15 12:24:04;;;;;;;4.43;1.30;;;19.40;95.40;;;;;;5093108;28;20044;-71
2023/10/15 12:26:33;;;;;;;5.70;1.60;;;20.10;93.40;;;;;;5093147;28;20495;-72
2023/10/15 12:29:02;;;;;;;4.28;1.50;;;21.00;92.60;;;;;;5093075;28;20114;-72
2023/10/15 12:31:31;;;;;;;3.17;1.10;;;21.60;91.60;;;;;;5093245;28;20047;-70
2023/10/15 12:34:00;;;;;;;5.15;1.17;;;21.90;90.70;;;;;;5093766;28;20643;-71
2023/10/15 12:36:28;;;;;;;5.43;1.10;;;22.10;89.80;;;;;;5094020;28;20071;-71
2023/10/15 12:38:56;;;;;;;4.78;1.20;;;21.90;88.10;;;;;;5092838;28;20054;-72
2023/10/15 12:41:25;;;;;;;4.18;1.58;;;21.40;87.60;;;;;;5093597;28;20126;-71
2023/10/15 12:43:58;;;;;;;5.13;1.65;;;21.10;88.20;;;;;;5109551;28;20052;-69
2023/10/15 12:46:26;;;;;;;3.60;1.63;;;21.80;87.40;;;;;;5094143;28;20131;-74
2023/10/15 12:48:53;;;;;;;4.82;1.20;;;21.50;86.60;;;;;;5093194;28;20044;-74
2023/10/15 12:51:21;;;;;;;3.78;1.00;;;21.30;86.50;;;;;;5091423;28;20051;-75
2023/10/15 12:53:47;;;;;;;4.38;1.10;;;21.90;85.90;;;;;;5093917;28;20051;-75
2023/10/15 12:56:14;;;;;;;7.55;1.10;;;21.50;85.10;;;;;;5093865;28;20441;-74
2023/10/15 12:58:41;;;;;;;3.97;1.08;;;20.70;85.80;;;;;;5111041;28;20047;-73
2023/10/15 13:01:10;;;;;;;4.43;0.90;;;19.40;87.20;;;;;;5093476;28;20051;-74
2023/10/15 13:03:36;;;;;;;4.45;1.80;;;18.50;87.90;;;;;;5094482;28;20047;-73
2023/10/15 13:06:03;;;;;;;2.60;1.13;;;17.60;90.20;;;;;;5096846;28;20499;-73
2023/10/15 13:08:30;;;;;;;9.23;1.20;;;16.90;90.80;;;;;;5097012;28;20486;-74